Tiempo atmosférico en la estación meteorológica de Sta.Cruz de Tenerife, Santa Cruz de Tenerife (35 m.)



Fecha
DESCASC
Temp. máxima en grados centígrados (hora)
DESCASC
Temp. mínima en grados centígrados (hora)
DESCASC
Temp. media en grados centígrados
DESCASC
Racha de viento máxima en m/sg (hora)
DESCASC
Velocidad máxima media en intervalos de 10 minutos(hora)
DESCASC
Precipitaciones diarias en mm
DESCASC
Precipitaciones de 00:00 a 06:00 en mm
DESCASC
Precipitaciones de 06:00 a 12:00 en mm
DESCASC
Precipitaciones de 12:00 a 18:00 en mm
DESCASC
Precipitaciones de 18:00 a 24:00 en mm
DESCASC
24-08-2019 33.4 (19:20) 24.8 (00:00) 29.1 8.33 (12:50) 4.44 (13:00) 0 0 0 0 0
23-08-2019 32.7 (15:30) 23.2 (00:00) 28 6.11 (17:10) 3.33 (12:40) 0 0 0 0 0
22-08-2019 32.5 (17:10) 21.7 (00:00) 27.1 9.72 (13:40) 5.83 (13:40) 0 0 0 0 0
21-08-2019 27.8 (15:10) 22.7 (00:00) 25.3 10.83 (15:10) 5.83 (14:00) 0 0 0 0 0
20-08-2019 30.2 (14:20) 21.7 (00:00) 26 10.83 (14:40) 7.5 (14:40) 0 0 0 0 0
19-08-2019 30.7 (17:50) 22.5 (00:00) 26.6 7.78 (11:50) 4.17 (12:20) 0 0 0 0 0
18-08-2019 30.7 (19:20) 24 (00:00) 27.4 6.67 (14:30) 3.89 (14:40) 0 0 0 0 0
17-08-2019 32.8 (14:20) 25.7 (00:00) 29.3 8.61 (16:00) 3.61 (19:30) 0 0 0 0 0
16-08-2019 33.7 (15:50) 23.9 (00:00) 28.8 9.72 (01:20) 5.28 (01:30) 0 0 0 0 0
15-08-2019 31.5 (16:40) 21.9 (00:00) 26.7 9.17 (01:20) 5.83 (14:00) 0 0 0 0 0
14-08-2019 29.7 (14:20) 20.8 (00:00) 25.3 8.89 (16:30) 5.83 (16:10) 0 0 0 0 0
13-08-2019 29.1 (15:20) 22.3 (00:00) 25.7 11.11 (01:30) 5.83 (20:50) 0 0 0 0 0
12-08-2019 28.8 (16:00) 22.7 (00:00) 25.8 10.28 (14:10) 5.56 (14:10) 0 0 0 0 0
11-08-2019 28.2 (12:30) 23.5 (00:00) 25.9 13.61 (17:50) 6.67 (16:40) 0 0 0 0 0
10-08-2019 30.1 (13:10) 22.7 (00:00) 26.4 10.56 (15:50) 6.67 (13:50) 0 0 0 0 0
09-08-2019 27.7 (17:10) 21.5 (00:00) 24.6 8.61 (16:30) 5.28 (12:50) 0 0 0 0 0
08-08-2019 26.3 (15:30) 21.3 (00:00) 23.8 7.78 (15:40) 5.28 (13:00) 0 0 0 0 0
07-08-2019 28.8 (12:40) 21.2 (00:00) 25 10.28 (16:00) 6.39 (13:00) 0 0 0 0 0
06-08-2019 29.5 (13:30) 22.7 (00:00) 26.1 13.61 (15:20) 7.22 (15:30) 0 0 0 0 0
05-08-2019 29.1 (17:30) 23 (00:00) 26.1 11.39 (14:30) 6.11 (14:20) 0 0 0 0 0
04-08-2019 28.9 (15:50) 20.9 (00:00) 24.9 13.06 (16:30) 7.22 (16:30) 0 0 0 0 0
03-08-2019 28.5 (13:20) 21.5 (00:00) 25 12.5 (14:10) 7.22 (15:50) 0 0 0 0 0
02-08-2019 29.7 (17:00) 20.4 (00:00) 25.1 8.89 (12:50) 4.72 (12:50) 0 0 0 0 0
01-08-2019 27.5 (13:50) 20.4 (00:00) 23.9 11.94 (01:00) 5.83 (14:10) 0 0 0 0 0
31-07-2019 26 (17:10) 21.3 (00:00) 23.6 13.33 (19:20) 6.94 (19:20) 0 0 0 0 0
30-07-2019 26.5 (14:10) 21.7 (00:00) 24.1 13.89 (16:50) 7.22 (16:50) 0 0 0 0 0
29-07-2019 28.9 (16:00) 21.9 (00:00) 25.4 11.67 (14:30) 5.83 (10:30) 0 0 0 0 0
28-07-2019 29.1 (13:30) 22 (00:00) 25.6 14.44 (18:30) 6.94 (18:30) 0 0 0 0 0
27-07-2019 27.2 (16:40) 21.9 (00:00) 24.6 12.78 (13:00) 6.39 (13:00) 0 0 0 0 0
26-07-2019 29.5 (13:30) 22.5 (00:00) 26 11.67 (16:30) 6.11 (14:00) 0 0 0 0 0

Gráficas

Temp. máximas Temp. mínimas Temp. medias Precipitaciones Rachas de viento máximas Velocidades máximas media en intervalos de 10 minutos

Datos horarios

Fecha y hora oficial Temperatura (ºC) Velocidad del viento (km/h) Dirección del viento Racha (km/h) Dirección de racha Precipitación (mm) Presión (hPa) Tendencia (hPa) Humedad (%)
2019-08-24 23:00:00 26 5 Sudoeste 18 Sudoeste 0 1008.3 1.6 65
2019-08-24 22:00:00 27.5 8 Sudoeste 17 Sur 0 1007.6 0.9 50
2019-08-24 21:00:00 28.9 8 Sur 14 Sudoeste 0 1007.1 0 47
2019-08-24 20:00:00 30.5 5 Sudoeste 15 Sudeste 0 1006.7 -0.9 39
2019-08-24 19:00:00 33.1 5 Oeste 13 Sur 0 1006.7 -1.1 30
2019-08-24 18:00:00 31.6 10 Sur 21 Sur 0 1007.1 -0.9 40
2019-08-24 17:00:00 32.2 10 Sur 21 Sur 0 1007.6 -0.8 46
2019-08-24 16:00:00 30.7 13 Sur 22 Sur 0 1007.8 -1.1 52
2019-08-24 15:00:00 30.1 9 Sur 19 Sur 0 1008 -1.1 52
2019-08-24 14:00:00 29.9 8 Sur 22 Sur 0 1008.4 -0.2 51
2019-08-24 13:00:00 29.8 16 Sur 30 Sudoeste 0 1008.9 0.3 53
2019-08-24 12:00:00 29.9 8 Sur 21 Sur 0 1009.1 1.3 49
2019-08-24 11:00:00 32.4 5 Sudoeste 10 Sudoeste 0 1008.6 1 31
2019-08-24 10:00:00 28.9 6 Sudoeste 15 Nordeste 0 1008.6 2 44
2019-08-24 09:00:00 28.6 5 Oeste 18 Sudoeste 0 1007.8 -0.5 27
2019-08-24 08:00:00 26.6 12 Sudoeste 27 Sudoeste 0 1007.6 -0.1 47
2019-08-24 07:00:00 25.2 8 Oeste 18 Noroeste 0 1006.6 -1.3 51
2019-08-24 06:00:00 24.9 6 Noroeste 24 Sudoeste 0 1008.3 0.6 65
2019-08-24 05:00:00 25.3 2 Sudoeste 13 Sur 0 1007.7 0.2 58
2019-08-24 04:00:00 26.1 6 Oeste 13 Oeste 0 1007.9 -0.1 40
2019-08-24 03:00:00 26.3 4 Noroeste 15 Oeste 0 1007.7 -0.4 45
2019-08-24 02:00:00 26.5 5 Noroeste 20 Oeste 0 1007.5 -0.8 44
2019-08-24 01:00:00 26.4 14 Oeste 23 Oeste 0 1008 0.2 48
2019-08-24 00:00:00 26.3 4 Noroeste 16 Noroeste 0 1008.1 1.1 57
2019-08-23 23:00:00 26 5 Noroeste 15 Sudoeste 0 1008.3 1.9 60
2019-08-23 22:00:00 26.4 5 Sur 11 Sur 0 1007.8 1.5 67
2019-08-23 21:00:00 28.4 4 Este 10 Este 0 1007 0.3 52
2019-08-23 20:00:00 29.8 5 Nordeste 9 Este 0 1006.4 -0.5 49
2019-08-23 19:00:00 30.1 4 Este 14 Sudeste 0 1006.3 -0.7 48
2019-08-23 18:00:00 30.7 9 Sudeste 22 Sur 0 1006.7 -0.4 46
2019-08-23 17:00:00 31.6 9 Sur 17 Sur 0 1006.9 -0.5 45
2019-08-23 16:00:00 31.2 9 Sur 19 Sudoeste 0 1007 -0.9 48
2019-08-23 15:00:00 31.3 10 Sudeste 20 Sudeste 0 1007.1 -1.4 46
2019-08-23 14:00:00 31.8 7 Sudeste 13 Sur 0 1007.4 -1 41
2019-08-23 13:00:00 30.7 6 Sudoeste 18 Sur 0 1007.9 0.1 45
2019-08-23 12:00:00 29.9 6 Sur 17 Sur 0 1008.5 0.6 42
2019-08-23 11:00:00 28.7 5 Sudeste 12 Sudeste 0 1008.4 0.6 49
2019-08-23 10:00:00 26.9 2 Norte 8 Este 0 1007.8 0.5 53
2019-08-23 09:00:00 24.7 5 Este 8 Este 0 1007.9 1 58
2019-08-23 08:00:00 23.3 3 Noroeste 7 Noroeste 0 1007.8 1 59
2019-08-23 07:00:00 23.3 3 Norte 6 Este 0 1007.3 0 67
2019-08-23 06:00:00 23.4 3 Nordeste 9 Sudeste 0 1006.9 -0.1 66
2019-08-23 05:00:00 23.9 3 Sur 14 Sudoeste 0 1006.8 -0.1 58
2019-08-23 04:00:00 23.8 8 Noroeste 13 Noroeste 0 1007.3 0 58
2019-08-23 03:00:00 24.1 6 Noroeste 12 Oeste 0 1007 -0.6 50
2019-08-23 02:00:00 23.8 3 Noroeste 8 Norte 0 1006.9 -1.1 59
2019-08-23 01:00:00 24.2 4 Noroeste 10 Noroeste 0 1007.3 -0.2 53
2019-08-23 00:00:00 23.7 2 Sur 12 Sur 0 1007.6 0.2 58
2019-08-22 23:00:00 24.6 7 Sur 16 Sur 0 1008 1.3 53
2019-08-22 22:00:00 25 9 Sur 16 Sudoeste 0 1007.5 1.1 50
2019-08-22 21:00:00 25.7 9 Sur 28 Oeste 0 1007.4 1.2 46
2019-08-22 20:00:00 27.6 6 Sur 15 Sur 0 1006.7 0.4 45
2019-08-22 19:00:00 29.2 9 Sur 16 Sudeste 0 1006.4 -0.2 44
2019-08-22 18:00:00 30.7 10 Sudeste 17 Sudeste 0 1006.2 -1 38
2019-08-22 17:00:00 31.8 10 Sudeste 18 Sudeste 0 1006.3 -1.8 35
2019-08-22 16:00:00 31.5 9 Sudeste 17 Sudeste 0 1006.6 -1.7 31
2019-08-22 15:00:00 30.2 9 Este 24 Este 0 1007.2 -1.4 37
2019-08-22 14:00:00 27.8 15 Este 35 Este 0 1008.1 -0.9 54
2019-08-22 13:00:00 27.9 18 Este 30 Este 0 1008.3 -0.6 50
2019-08-22 12:00:00 28.2 13 Este 18 Este 0 1008.6 -0.2 43
2019-08-22 11:00:00 27.4 8 Este 15 Sudeste 0 1009 0.5 48
2019-08-22 10:00:00 26.4 5 Sur 13 Sudeste 0 1008.9 0.9 50
2019-08-22 09:00:00 23.9 2 Noroeste 11 Oeste 0 1008.8 1 55
2019-08-22 08:00:00 22.1 4 Sudoeste 10 Sur 0 1008.5 0.8 60
2019-08-22 07:00:00 21.9 4 Sur 7 Oeste 0 1008 -0.2 61
2019-08-22 06:00:00 22.1 3 Norte 13 Oeste 0 1007.8 -0.8 60
2019-08-22 05:00:00 22.1 2 Nordeste 18 Oeste 0 1007.7 -1.4 60
2019-08-22 04:00:00 22.4 8 Oeste 18 Noroeste 0 1008.2 -1.6 59
2019-08-22 03:00:00 22.6 9 Oeste 23 Oeste 0 1008.6 -1.6 60
2019-08-22 02:00:00 22.7 5 Noroeste 18 Noroeste 0 1009.1 -1.3 57
2019-08-22 01:00:00 22.8 12 Oeste 19 Oeste 0 1009.8 -0.4 59
2019-08-22 00:00:00 23.2 7 Oeste 25 Oeste 0 1010.2 -0.1 56
2019-08-21 23:00:00 23.5 8 Oeste 29 Oeste 0 1010.4 0.2 57
2019-08-21 22:00:00 23.7 12 Oeste 25 Oeste 0 1010.2 0.3 56
2019-08-21 21:00:00 24.1 6 Sudeste 15 Este 0 1010.3 0.3 55
2019-08-21 20:00:00 25 6 Este 28 Nordeste 0 1010.2 0.3 53
2019-08-21 19:00:00 26.4 14 Nordeste 35 Este 0 1009.9 -0.2 49
2019-08-21 18:00:00 26.5 17 Este 39 Nordeste 0 1010 -0.2 50
2019-08-21 17:00:00 26.9 21 Este 38 Nordeste 0 1009.9 -0.9 51
2019-08-21 16:00:00 27.8 20 Nordeste 39 Nordeste 0 1010.1 -1.5 47
2019-08-21 15:00:00 27.7 17 Este 36 Nordeste 0 1010.2 -1.7 46
2019-08-21 14:00:00 26.6 21 Nordeste 38 Nordeste 0 1010.8 -1.3 52
2019-08-21 13:00:00 27.2 11 Norte 29 Nordeste 0 1011.6 -0.6 53
2019-08-21 12:00:00 26.8 14 Nordeste 32 Nordeste 0 1011.9 -0.3 55
2019-08-21 11:00:00 25.6 14 Nordeste 28 Nordeste 0 1012.1 0.2 59
2019-08-21 10:00:00 24.3 10 Nordeste 21 Norte 0 1012.2 0.5 63
2019-08-21 09:00:00 24.1 8 Nordeste 26 Norte 0 1012.2 1 63
2019-08-21 08:00:00 22.9 9 Norte 28 Norte 0 1011.9 0.7 69
2019-08-21 07:00:00 22.9 13 Norte 29 Noroeste 0 1011.7 0 69
2019-08-21 06:00:00 23 14 Norte 27 Norte 0 1011.2 -0.6 67
2019-08-21 05:00:00 22.8 13 Noroeste 27 Noroeste 0 1011.2 -1 72
2019-08-21 04:00:00 22.9 14 Noroeste 33 Noroeste 0 1011.7 -1 71
2019-08-21 03:00:00 23.1 18 Noroeste 30 Noroeste 0 1011.8 -1.1 69
2019-08-21 02:00:00 23.2 3 Sur 13 Sudeste 0 1012.2 -0.7 69
2019-08-21 01:00:00 23.7 8 Noroeste 28 Noroeste 0 1012.7 0 67
2019-08-21 00:00:00 23.6 9 Norte 23 Nordeste 0 1012.9 0.4 68
2019-08-20 23:00:00 23.8 10 Nordeste 21 Nordeste 0 1012.9 1.4 67
2019-08-20 22:00:00 24 9 Este 21 Nordeste 0 1012.7 1.7 66
2019-08-20 21:00:00 24.6 11 Nordeste 26 Nordeste 0 1012.5 1.2 65
2019-08-20 20:00:00 27 7 Sudeste 22 Este 0 1011.5 0.1 53
2019-08-20 19:00:00 28.6 12 Este 28 Este 0 1011 -0.7 49
2019-08-20 18:00:00 28.8 16 Este 29 Este 0 1011.3 -0.8 50
2019-08-20 17:00:00 29 18 Este 36 Este 0 1011.4 -0.7 48
2019-08-20 16:00:00 27.8 19 Este 36 Este 0 1011.7 -0.7 56
2019-08-20 15:00:00 27.8 22 Este 39 Este 0 1012.1 -0.8 55
2019-08-20 14:00:00 29.7 17 Este 32 Nordeste 0 1012.1 -0.8 46
2019-08-20 13:00:00 29.2 15 Este 31 Este 0 1012.4 -0.1 48
2019-08-20 12:00:00 28.2 18 Este 30 Este 0 1012.9 0.7 49
2019-08-20 11:00:00 27 15 Este 26 Este 0 1012.9 1.3 53
2019-08-20 10:00:00 26.1 12 Este 24 Este 0 1012.5 1.5 56
2019-08-20 09:00:00 24.9 4 Sudeste 8 Sudeste 0 1012.2 1.2 57
2019-08-20 08:00:00 21.8 3 Sudoeste 9 Oeste 0 1011.6 0.7 64
2019-08-20 07:00:00 22 5 Oeste 10 Oeste 0 1011 0 63
2019-08-20 06:00:00 22.4 4 Noroeste 17 Este 0 1011 -0.4 60
2019-08-20 05:00:00 23 7 Este 14 Este 0 1010.9 -1 64
2019-08-20 04:00:00 23.2 6 Este 15 Nordeste 0 1011 -1.5 65
2019-08-20 03:00:00 23.2 4 Este 12 Este 0 1011.4 -1.1 62
2019-08-20 02:00:00 23.6 6 Este 28 Este 0 1011.9 -0.5 61
2019-08-20 01:00:00 23.7 8 Este 22 Sudeste 0 1012.5 0.8 65
2019-08-20 00:00:00 24.3 6 Este 18 Este 0 1012.5 1.2 61
2019-08-19 23:00:00 24.3 7 Este 15 Este 0 1012.4 2 65
2019-08-19 22:00:00 24.6 9 Nordeste 15 Nordeste 0 1011.7 1.7 64
2019-08-19 21:00:00 25.2 8 Este 15 Este 0 1011.3 1.6 62
2019-08-19 20:00:00 26 6 Este 19 Este 0 1010.4 0.5 61
2019-08-19 19:00:00 28.2 8 Este 19 Este 0 1010 -0.2 52
2019-08-19 18:00:00 30.5 9 Este 22 Este 0 1009.7 -1.3 44
2019-08-19 17:00:00 28.8 11 Este 23 Este 0 1009.9 -1.6 47
2019-08-19 16:00:00 28 11 Este 23 Este 0 1010.2 -1.5 52
2019-08-19 15:00:00 27.1 11 Este 26 Este 0 1011 -1 59
2019-08-19 14:00:00 27.1 12 Este 26 Este 0 1011.5 0.4 62
2019-08-19 13:00:00 26.6 14 Este 27 Este 0 1011.7 0.8 64
2019-08-19 12:00:00 26.5 13 Este 28 Nordeste 0 1012 1.8 63
2019-08-19 11:00:00 26.5 8 Este 21 Este 0 1011.1 1.3 61
2019-08-19 10:00:00 26 10 Este 19 Sudoeste 0 1010.9 1.7 64
2019-08-19 09:00:00 24.4 13 Sudoeste 25 Sudoeste 0 1010.2 1.1 69
2019-08-19 08:00:00 22.7 7 Sudoeste 12 Sudoeste 0 1009.8 1 74
2019-08-19 07:00:00 22.9 5 Sur 15 Sudoeste 0 1009.2 0.2 71
2019-08-19 06:00:00 23.2 6 Sudoeste 13 Oeste 0 1009.1 -0.9 74
2019-08-19 05:00:00 22.8 2 Sudoeste 6 Sudoeste 0 1008.8 -1.5 76
2019-08-19 04:00:00 23 4 Oeste 12 Sudoeste 0 1009 -1.4 76
2019-08-19 03:00:00 23.5 8 Sudoeste 18 Sudoeste 0 1010 -0.4 74
2019-08-19 02:00:00 23.7 9 Sudoeste 25 Sudoeste 0 1010.3 0 71
2019-08-19 01:00:00 24 9 Sur 20 Sur 0 1010.4 0.9 75
2019-08-19 00:00:00 24.9 7 Sur 21 Sudoeste 0 1010.4 1.2 68
2019-08-18 23:00:00 25.2 9 Sudoeste 14 Sudoeste 0 1010.3 1.4 60
2019-08-18 22:00:00 25.8 4 Sur 15 Sudoeste 0 1009.5 1 55
2019-08-18 21:00:00 26.8 9 Sur 15 Sudoeste 0 1009.2 0.1 51
2019-08-18 20:00:00 28.3 6 Sur 19 Sur 0 1008.9 -0.2 44
2019-08-18 19:00:00 30.5 8 Sudoeste 16 Este 0 1008.5 -0.8 40
2019-08-18 18:00:00 29.7 6 Sudeste 18 Este 0 1009.1 -0.8 45
2019-08-18 17:00:00 30.5 6 Sudeste 19 Este 0 1009.1 -1.2 46
2019-08-18 16:00:00 29.7 9 Este 15 Este 0 1009.3 -1 50
2019-08-18 15:00:00 27.9 9 Este 24 Este 0 1009.9 -0.4 60
2019-08-18 14:00:00 29.2 12 Este 17 Sudeste 0 1010.3 0.2 53
2019-08-18 13:00:00 29.6 8 Sudeste 19 Sur 0 1010.3 0.7 52
2019-08-18 12:00:00 29.5 12 Sudoeste 22 Sur 0 1010.3 1.4 49
2019-08-18 11:00:00 28.6 5 Sudeste 20 Sur 0 1010.1 1.6 52
2019-08-18 10:00:00 27.5 12 Sudoeste 17 Sudoeste 0 1009.6 1.4 51
2019-08-18 09:00:00 26.1 3 Sudoeste 8 Oeste 0 1008.9 0.8 46
2019-08-18 08:00:00 24 3 Este 14 Sudoeste 0 1008.5 0.1 53
2019-08-18 07:00:00 24.3 9 Sudoeste 16 Sudoeste 0 1008.2 -0.4 55
2019-08-18 06:00:00 24.3 4 Sur 6 Sudoeste 0 1008.1 -0.6 58
2019-08-18 05:00:00 24.9 4 Oeste 12 Sudoeste 0 1008.4 -0.5 53
2019-08-18 04:00:00 24.7 4 Sudoeste 8 Sur 0 1008.6 -0.4 65
2019-08-18 03:00:00 25 2 Oeste 8 Oeste 0 1008.7 -0.3 61
2019-08-18 02:00:00 25.5 8 Sudoeste 15 Sudoeste 0 1008.9 -0.1 58
2019-08-18 01:00:00 26.5 3 Sudoeste 13 Sudoeste 0 1009 0.6 47
2019-08-18 00:00:00 26.7 4 Sudoeste 12 Sudoeste 0 1009 1.2 49
2019-08-17 23:00:00 27.7 6 Sudoeste 12 Oeste 0 1009 1.4 47
2019-08-17 22:00:00 28.3 6 Sudoeste 10 Sudoeste 0 1008.4 0.9 41
2019-08-17 21:00:00 29 7 Sur 12 Este 0 1007.8 0.4 39
2019-08-17 20:00:00 29.9 6 Este 27 Nordeste 0 1007.6 0.3 35
2019-08-17 19:00:00 30.4 9 Norte 27 Nordeste 0 1007.5 0 40
2019-08-17 18:00:00 32.1 8 Nordeste 26 Nordeste 0 1007.4 -0.2 36
2019-08-17 17:00:00 31.5 9 Nordeste 30 Nordeste 0 1007.3 -0.7 39
2019-08-17 16:00:00 32.2 12 Nordeste 31 Este 0 1007.5 -1.1 36
2019-08-17 15:00:00 31.9 8 Nordeste 21 Nordeste 0 1007.6 -1.3 36
2019-08-17 14:00:00 32.4 5 Nordeste 25 Nordeste 0 1008 -0.8 34
2019-08-17 13:00:00 31.3 7 Nordeste 22 Este 0 1008.6 0.2 38
2019-08-17 12:00:00 30.5 7 Norte 30 Este 0 1008.9 1 40
2019-08-17 11:00:00 30.5 8 Este 15 Este 0 1008.8 0.8 41
2019-08-17 10:00:00 29.2 9 Sur 17 Sudoeste 0 1008.4 0.7 50
2019-08-17 09:00:00 27.6 5 Sur 13 Sudoeste 0 1007.9 0.2 52
2019-08-17 08:00:00 25.8 4 Sudoeste 11 Oeste 0 1008 0.2 53
2019-08-17 07:00:00 26.1 5 Sudoeste 15 Sudoeste 0 1007.7 -0.2 53
2019-08-17 06:00:00 26.5 5 Sudoeste 19 Sudoeste 0 1007.7 -0.2 48
2019-08-17 05:00:00 26.6 8 Sudoeste 16 Oeste 0 1007.8 -0.8 47
2019-08-17 04:00:00 26.5 6 Oeste 12 Sudoeste 0 1007.9 -1 43
2019-08-17 03:00:00 26.3 3 Sur 11 Oeste 0 1007.9 -1.3 44
2019-08-17 02:00:00 26.4 5 Sudoeste 12 Sudoeste 0 1008.6 -0.6 56
2019-08-17 01:00:00 26.8 4 Sudoeste 9 Oeste 0 1008.9 0.5 53
2019-08-17 00:00:00 26.6 3 Oeste 10 Oeste 0 1009.2 1.9 57
2019-08-16 23:00:00 26.5 9 Sudoeste 18 Sur 0 1009.2 2.3 62
2019-08-16 22:00:00 28.1 10 Sur 14 Sur 0 1008.4 1.5 51
2019-08-16 21:00:00 29.4 4 Sur 11 Sudeste 0 1007.3 0.1 43
2019-08-16 20:00:00 30.5 5 Sudeste 16 Este 0 1006.9 -0.6 40
2019-08-16 19:00:00 30.7 8 Nordeste 24 Este 0 1006.9 -0.7 40
2019-08-16 18:00:00 31.6 6 Nordeste 23 Nordeste 0 1007.2 -0.9 38
2019-08-16 17:00:00 31.9 6 Nordeste 24 Nordeste 0 1007.5 -1.2 39
2019-08-16 16:00:00 33.2 6 Este 19 Este 0 1007.6 -1.8 33
2019-08-16 15:00:00 32.6 8 Nordeste 22 Nordeste 0 1008.1 -1.3 35
2019-08-16 14:00:00 32.6 5 Nordeste 22 Este 0 1008.7 -0.7 33
2019-08-16 13:00:00 32.4 5 Sudeste 15 Sur 0 1009.4 0.2 33
2019-08-16 12:00:00 31.4 6 Sur 17 Sur 0 1009.4 0.2 33
2019-08-16 11:00:00 30 9 Sur 14 Sur 0 1009.4 0 41
2019-08-16 10:00:00 28.7 4 Sudoeste 10 Sur 0 1009.2 0.5 43
2019-08-16 09:00:00 25.7 7 Oeste 10 Oeste 0 1009.2 1.1 46
2019-08-16 08:00:00 23.9 4 Noroeste 20 Noroeste 0 1009.4 0.9 58
2019-08-16 07:00:00 24.2 7 Noroeste 22 Oeste 0 1008.7 -0.4 59
2019-08-16 06:00:00 24.2 15 Oeste 27 Noroeste 0 1008.1 -1.4 60
2019-08-16 05:00:00 24 14 Oeste 30 Oeste 0 1008.5 -1.1 62
2019-08-16 04:00:00 24 18 Oeste 28 Oeste 0 1009.1 -1.3 64
2019-08-16 03:00:00 23.9 19 Oeste 32 Oeste 0 1009.5 -1.1 65
2019-08-16 02:00:00 24.3 11 Oeste 35 Oeste 0 1009.6 -1.2 59
2019-08-16 01:00:00 24.3 18 Oeste 32 Noroeste 0 1010.4 0 64
2019-08-16 00:00:00 24.7 14 Oeste 27 Noroeste 0 1010.6 0.7 63
2019-08-15 23:00:00 24.9 14 Oeste 31 Noroeste 0 1010.8 1.2 62
2019-08-15 22:00:00 25.6 9 Oeste 22 Oeste 0 1010.4 0.8 58
2019-08-15 21:00:00 26.1 6 Sudoeste 15 Sur 0 1009.9 0.3 56
2019-08-15 20:00:00 27.1 10 Sudoeste 23 Sudeste 0 1009.6 0 52
2019-08-15 19:00:00 29.3 13 Sur 28 Sur 0 1009.6 -0.2 44
2019-08-15 18:00:00 30.7 14 Oeste 32 Oeste 0 1009.6 -0.7 45
2019-08-15 17:00:00 30.4 14 Sudeste 28 Sudeste 0 1009.6 -1.5 43
2019-08-15 16:00:00 30.8 9 Este 30 Este 0 1009.8 -1.6 43
2019-08-15 15:00:00 30 17 Este 31 Este 0 1010.3 -1.5 48
2019-08-15 14:00:00 28.8 21 Este 32 Sudeste 0 1011.1 -0.6 52
2019-08-15 13:00:00 29.8 14 Este 22 Nordeste 0 1011.4 0.1 44
2019-08-15 12:00:00 29.6 10 Este 20 Este 0 1011.8 0.6 42
2019-08-15 11:00:00 28.9 8 Este 18 Nordeste 0 1011.7 0.8 39
2019-08-15 10:00:00 27.1 4 Sudoeste 9 Oeste 0 1011.3 0.3 46
2019-08-15 09:00:00 24.7 6 Oeste 26 Oeste 0 1011.2 0.3 52
2019-08-15 08:00:00 22.5 11 Oeste 18 Oeste 0 1010.9 -0.1 53
2019-08-15 07:00:00 22.4 9 Oeste 17 Oeste 0 1011 -0.4 55
2019-08-15 06:00:00 22.5 12 Noroeste 22 Oeste 0 1010.9 -0.9 54
2019-08-15 05:00:00 22.4 7 Noroeste 15 Noroeste 0 1011 -1.3 55
2019-08-15 04:00:00 22.6 8 Oeste 23 Noroeste 0 1011.4 -0.8 55
2019-08-15 03:00:00 22.7 13 Oeste 26 Oeste 0 1011.8 -0.8 56
2019-08-15 02:00:00 22.8 13 Oeste 33 Oeste 0 1012.3 -0.3 57
2019-08-15 01:00:00 23.1 11 Oeste 26 Oeste 0 1012.2 0 56
2019-08-15 00:00:00 23.3 13 Oeste 27 Noroeste 0 1012.6 0.9 56
2019-08-14 23:00:00 23.4 16 Oeste 26 Oeste 0 1012.6 1.1 57
2019-08-14 22:00:00 24 14 Oeste 28 Oeste 0 1012.2 0.8 53
2019-08-14 21:00:00 24.6 15 Oeste 28 Oeste 0 1011.7 -0.1 55
2019-08-14 20:00:00 26.4 9 Oeste 23 Oeste 0 1011.5 -0.4 48
2019-08-14 19:00:00 28.5 11 Este 21 Este 0 1011.4 -0.5 40
2019-08-14 18:00:00 27.9 15 Este 27 Este 0 1011.8 -0.2 42
2019-08-14 17:00:00 28.1 17 Este 32 Este 0 1011.9 -0.6 41
2019-08-14 16:00:00 28.4 18 Este 31 Este 0 1011.9 -1.2 44
2019-08-14 15:00:00 28.3 17 Este 26 Este 0 1012 -1.1 44
2019-08-14 14:00:00 29.5 13 Este 25 Este 0 1012.5 -0.4 41
2019-08-14 13:00:00 28.4 12 Este 24 Este 0 1013.1 0.1 40
2019-08-14 12:00:00 28.6 13 Nordeste 22 Nordeste 0 1013.1 0.6 39
2019-08-14 11:00:00 27.5 9 Este 17 Nordeste 0 1012.9 0.7 44
2019-08-14 10:00:00 25.7 5 Sudeste 11 Sudeste 0 1013 1.1 48
2019-08-14 09:00:00 24 3 Sur 8 Sur 0 1012.5 0.6 56
2019-08-14 08:00:00 21.3 2 Sur 9 Sur 0 1012.2 0.4 63
2019-08-14 07:00:00 20.9 2 Noroeste 7 Sudoeste 0 1011.9 -0.2 62
2019-08-14 06:00:00 20.9 3 Sur 8 Sur 0 1011.9 -0.7 63
2019-08-14 05:00:00 21.1 4 Oeste 8 Oeste 0 1011.8 -1.3 63
2019-08-14 04:00:00 21 5 Sur 8 Sudeste 0 1012.1 -1.4 65
2019-08-14 03:00:00 21.5 4 Sur 10 Oeste 0 1012.6 -0.9 62
2019-08-14 02:00:00 22.1 4 Sur 12 Norte 0 1013.1 -0.5 61
2019-08-14 01:00:00 22.6 4 Nordeste 23 Noroeste 0 1013.5 0.5 60
2019-08-14 00:00:00 22.8 11 Norte 28 Noroeste 0 1013.5 0.9 59
2019-08-13 23:00:00 22.9 12 Norte 26 Noroeste 0 1013.6 1.3 58
2019-08-13 22:00:00 23.1 13 Noroeste 30 Norte 0 1013 0.6 59
2019-08-13 21:00:00 23.3 13 Noroeste 33 Norte 0 1012.6 0.1 58
2019-08-13 20:00:00 24 18 Norte 35 Norte 0 1012.3 0.1 57
2019-08-13 19:00:00 25.9 17 Norte 35 Norte 0 1012.4 0.3 50
2019-08-13 18:00:00 26.7 12 Norte 35 Norte 0 1012.5 0.2 48
2019-08-13 17:00:00 27.8 15 Norte 36 Norte 0 1012.2 -0.6 44
2019-08-13 16:00:00 27.9 20 Norte 32 Norte 0 1012.1 -1.1 43
2019-08-13 15:00:00 28.9 8 Norte 31 Noroeste 0 1012.3 -1.2 43
2019-08-13 14:00:00 28.3 8 Noroeste 32 Noroeste 0 1012.8 -0.7 42
2019-08-13 13:00:00 27.3 12 Nordeste 33 Nordeste 0 1013.2 -0.1 46
2019-08-13 12:00:00 26.6 13 Nordeste 37 Nordeste 0 1013.5 0.5 49
2019-08-13 11:00:00 25.6 19 Nordeste 35 Nordeste 0 1013.5 0.7 54
2019-08-13 10:00:00 25.8 12 Nordeste 23 Nordeste 0 1013.3 0.7 52
2019-08-13 09:00:00 24.3 6 Nordeste 19 Nordeste 0 1013 0.6 57
2019-08-13 08:00:00 22.4 2 Noroeste 18 Nordeste 0 1012.8 0.5 62
2019-08-13 07:00:00 22.4 12 Norte 24 Norte 0 1012.6 0 62
2019-08-13 06:00:00 22.9 13 Norte 28 Norte 0 1012.4 -0.5 58
2019-08-13 05:00:00 23.2 7 Norte 32 Norte 0 1012.3 -1.1 54
2019-08-13 04:00:00 23.6 8 Norte 21 Noroeste 0 1012.6 -1.1 50
2019-08-13 03:00:00 23.2 8 Norte 32 Oeste 0 1012.9 -1.3 56
2019-08-13 02:00:00 23.3 14 Oeste 40 Oeste 0 1013.4 -0.7 57
2019-08-13 01:00:00 23.3 18 Oeste 31 Noroeste 0 1013.7 0.1 56
2019-08-13 00:00:00 23.6 5 Nordeste 13 Norte 0 1014.2 1.3 50
2019-08-12 23:00:00 24 11 Norte 27 Norte 0 1014.1 1.7 48
2019-08-12 22:00:00 24.1 9 Nordeste 24 Norte 0 1013.6 1.9 51
2019-08-12 21:00:00 24.9 10 Noroeste 22 Oeste 0 1012.9 1.1 42
2019-08-12 20:00:00 25.7 15 Norte 34 Norte 0 1012.4 0.6 42
2019-08-12 19:00:00 27.5 15 Norte 30 Norte 0 1011.7 -0.4 41
2019-08-12 18:00:00 28.3 14 Norte 30 Norte 0 1011.8 -0.5 41
2019-08-12 17:00:00 28.4 17 Norte 35 Norte 0 1011.8 -0.9 40
2019-08-12 16:00:00 28.7 17 Nordeste 31 Nordeste 0 1012.1 -1.1 41
2019-08-12 15:00:00 28.5 13 Nordeste 37 Nordeste 0 1012.3 -1.2 44
2019-08-12 14:00:00 27.8 17 Nordeste 32 Nordeste 0 1012.7 -1 48
2019-08-12 13:00:00 27.3 15 Nordeste 30 Nordeste 0 1013.2 -0.3 50
2019-08-12 12:00:00 27.1 16 Norte 36 Norte 0 1013.5 0.1 51
2019-08-12 11:00:00 26.2 11 Norte 30 Norte 0 1013.7 0.7 58
2019-08-12 10:00:00 25.2 13 Norte 26 Noroeste 0 1013.5 0.8 62
2019-08-12 09:00:00 24.5 8 Norte 23 Norte 0 1013.4 0.9 63
2019-08-12 08:00:00 22.8 10 Norte 21 Norte 0 1013 0.5 67
2019-08-12 07:00:00 22.8 6 Norte 18 Noroeste 0 1012.7 0.1 67
2019-08-12 06:00:00 23 7 Nordeste 19 Norte 0 1012.5 -0.5 66
2019-08-12 05:00:00 23 8 Nordeste 18 Nordeste 0 1012.5 -1.3 65
2019-08-12 04:00:00 23.1 5 Norte 21 Nordeste 0 1012.6 -1.7 65
2019-08-12 03:00:00 23.3 10 Nordeste 21 Nordeste 0 1013 -1.4 63
2019-08-12 02:00:00 23.3 6 Norte 21 Norte 0 1013.8 -0.4 62
2019-08-12 01:00:00 23.5 11 Norte 22 Norte 0 1014.3 0.4 58
2019-08-12 00:00:00 23.6 10 Norte 24 Norte 0 1014.4 0.9 57
2019-08-11 23:00:00 23.7 11 Norte 29 Norte 0 1014.2 1.4 60
2019-08-11 22:00:00 24 13 Norte 32 Norte 0 1013.9 1.4 59
2019-08-11 21:00:00 24.3 12 Norte 30 Nordeste 0 1013.5 1.1 58
2019-08-11 20:00:00 25 15 Nordeste 43 Norte 0 1012.8 0.6 56
2019-08-11 19:00:00 26.2 18 Nordeste 44 Nordeste 0 1012.5 0.1 54
2019-08-11 18:00:00 27 19 Nordeste 49 Nordeste 0 1012.4 -0.2 50
2019-08-11 17:00:00 27.8 19 Nordeste 44 Nordeste 0 1012.2 -1.1 47
2019-08-11 16:00:00 27.5 19 Nordeste 45 Nordeste 0 1012.4 -1 51
2019-08-11 15:00:00 28 18 Nordeste 35 Nordeste 0 1012.6 -1.3 54
2019-08-11 14:00:00 28.1 15 Nordeste 35 Este 0 1013.3 -0.8 57
2019-08-11 13:00:00 28 14 Nordeste 35 Nordeste 0 1013.4 -0.4 58
2019-08-11 12:00:00 27.6 14 Nordeste 33 Nordeste 0 1013.9 0.2 58
2019-08-11 11:00:00 25.2 15 Nordeste 26 Nordeste 0 1014.1 0.9 70
2019-08-11 10:00:00 24.6 12 Nordeste 33 Este 0 1013.8 0.7 76
2019-08-11 09:00:00 24.2 13 Este 29 Este 0 1013.7 0.7 79
2019-08-11 08:00:00 25.1 6 Este 21 Nordeste 0 1013.2 0.1 72
2019-08-11 07:00:00 24.9 13 Norte 30 Nordeste 0 1013.1 -0.5 70
2019-08-11 06:00:00 24.7 9 Norte 23 Nordeste 0 1013 -0.9 71
2019-08-11 05:00:00 24.7 13 Nordeste 26 Norte 0 1013.1 -1.2 72
2019-08-11 04:00:00 24.8 6 Nordeste 21 Nordeste 0 1013.6 -0.9 73
2019-08-11 03:00:00 24.8 11 Norte 31 Norte 0 1013.9 -0.7 70
2019-08-11 02:00:00 24.7 14 Norte 34 Norte 0 1014.3 -0.1 69
2019-08-11 01:00:00 24.7 13 Norte 30 Noroeste 0 1014.5 0.8 70
2019-08-11 00:00:00 25.2 5 Sudoeste 15 Oeste 0 1014.6 1.2 66
2019-08-10 23:00:00 25.3 5 Sudoeste 22 Oeste 0 1014.4 1.4 68
2019-08-10 22:00:00 25.9 9 Oeste 24 Noroeste 0 1013.7 1 62
2019-08-10 21:00:00 26.9 9 Noroeste 21 Oeste 0 1013.4 0.5 57
2019-08-10 20:00:00 28.1 5 Sudoeste 23 Nordeste 0 1013 0 52
2019-08-10 19:00:00 29.9 8 Sudeste 31 Este 0 1012.7 -0.9 50
2019-08-10 18:00:00 28.1 16 Este 34 Este 0 1012.9 -1.1 60
2019-08-10 17:00:00 28.2 19 Este 35 Este 0 1013 -1.2 60
2019-08-10 16:00:00 27.9 19 Este 38 Este 0 1013.6 -0.8 62
2019-08-10 15:00:00 29.2 21 Este 35 Este 0 1014 -0.5 57
2019-08-10 14:00:00 29.3 18 Este 34 Este 0 1014.2 -0.1 55
2019-08-10 13:00:00 29.8 12 Este 31 Este 0 1014.4 0.4 51
2019-08-10 12:00:00 29.3 15 Este 25 Este 0 1014.5 1.3 54
2019-08-10 11:00:00 28.7 11 Este 18 Este 0 1014.3 1.3 58
2019-08-10 10:00:00 27.1 8 Este 11 Sudeste 0 1014 1.5 60
2019-08-10 09:00:00 25.2 3 Sur 7 Oeste 0 1013.2 0.8 65
2019-08-10 08:00:00 22.8 2 Oeste 12 Sur 0 1013 0.5 72
2019-08-10 07:00:00 23.1 5 Oeste 12 Sudoeste 0 1012.5 -0.2 69
2019-08-10 06:00:00 22.9 4 Sudoeste 10 Sur 0 1012.4 -1 71
2019-08-10 05:00:00 22.8 3 Noroeste 11 Sur 0 1012.5 -1.7 70
2019-08-10 04:00:00 22.8 5 Sur 8 Sudeste 0 1012.7 -1.6 72
2019-08-10 03:00:00 22.9 2 Sur 6 Sudeste 0 1013.4 -1.1 70
2019-08-10 02:00:00 23 5 Oeste 8 Sudeste 0 1014.2 -0.1 76
2019-08-10 01:00:00 22.8 0 Calma 6 Sudeste 0 1014.3 0.6 80
2019-08-10 00:00:00 23.1 2 Sudeste 8 Sur 0 1014.5 1.2 81
2019-08-09 23:00:00 23.4 6 Sur 12 Sur 0 1014.3 1.7 80
2019-08-09 22:00:00 23.7 9 Sur 15 Sur 0 1013.7 1.4 78
2019-08-09 21:00:00 24.1 9 Sur 25 Sur 0 1013.3 0.9 76
2019-08-09 20:00:00 24.6 14 Sudoeste 30 Sur 0 1012.6 0 73
2019-08-09 19:00:00 27.1 14 Sudoeste 23 Sudoeste 0 1012.3 -1.1 62
2019-08-09 18:00:00 27.1 6 Sur 22 Este 0 1012.4 -1.5 62
2019-08-09 17:00:00 27.3 6 Sudeste 31 Este 0 1012.6 -1.3 63
2019-08-09 16:00:00 25.7 19 Este 28 Este 0 1013.4 -0.7 69
2019-08-09 15:00:00 26.2 15 Este 28 Este 0 1013.9 0.5 67
2019-08-09 14:00:00 25.7 18 Este 29 Este 0 1013.9 1.1 69
2019-08-09 13:00:00 25.5 19 Este 30 Este 0 1014.1 1.3 71
2019-08-09 12:00:00 27.3 9 Sur 16 Sudoeste 0 1013.4 0.6 59
2019-08-09 11:00:00 26.5 4 Oeste 14 Sudeste 0 1012.8 0.7 60
2019-08-09 10:00:00 25.4 5 Este 15 Sur 0 1012.8 0.6 66
2019-08-09 09:00:00 23.5 6 Sur 13 Sur 0 1012.8 0.6 76
2019-08-09 08:00:00 21.7 5 Oeste 7 Noroeste 0 1012.1 -0.1 80
2019-08-09 07:00:00 21.5 3 Sur 7 Sudoeste 0 1012.2 -0.2 82
2019-08-09 06:00:00 21.7 4 Sudoeste 7 Oeste 0 1012.2 -0.6 82
2019-08-09 05:00:00 21.9 3 Sudeste 7 Este 0 1012.2 -1.1 83
2019-08-09 04:00:00 22.2 3 Este 7 Este 0 1012.4 -1.2 82
2019-08-09 03:00:00 22.5 5 Este 13 Este 0 1012.8 -0.6 81
2019-08-09 02:00:00 22.5 4 Sur 13 Sur 0 1013.3 0.3 81
2019-08-09 01:00:00 22.7 7 Sur 14 Sur 0 1013.6 1.1 81
2019-08-09 00:00:00 22.9 6 Sudoeste 13 Sur 0 1013.4 1.4 80
2019-08-08 23:00:00 23.1 5 Sudoeste 14 Sudoeste 0 1013 1.7 78
2019-08-08 22:00:00 23.4 7 Sudoeste 16 Sur 0 1012.5 1.4 76
2019-08-08 21:00:00 23.8 6 Sudoeste 16 Sudeste 0 1012 0.8 73
2019-08-08 20:00:00 24.6 8 Este 17 Este 0 1011.3 0.1 72
2019-08-08 19:00:00 25.6 9 Este 23 Este 0 1011.1 -0.2 68
2019-08-08 18:00:00 25.5 13 Este 28 Este 0 1011.2 -0.4 68
2019-08-08 17:00:00 26.3 16 Este 27 Este 0 1011.2 -0.1 65
2019-08-08 16:00:00 25.7 14 Este 28 Este 0 1011.3 -0.6 66
2019-08-08 15:00:00 25.6 17 Este 26 Este 0 1011.6 -0.3 68
2019-08-08 14:00:00 25.5 15 Este 26 Este 0 1011.3 -0.1 65
2019-08-08 13:00:00 25.2 19 Este 25 Este 0 1011.9 1.1 68
2019-08-08 12:00:00 25.8 10 Este 24 Este 0 1011.9 1 66
2019-08-08 11:00:00 25.4 14 Este 24 Este 0 1011.4 0.7 68
2019-08-08 10:00:00 24.6 8 Este 14 Este 0 1010.8 0.5 66
2019-08-08 09:00:00 23.1 6 Oeste 14 Oeste 0 1010.9 0.8 64
2019-08-08 08:00:00 21.5 8 Oeste 11 Oeste 0 1010.7 1 68
2019-08-08 07:00:00 21.4 5 Noroeste 8 Oeste 0 1010.3 0.3 68
2019-08-08 06:00:00 21.5 3 Oeste 8 Oeste 0 1010.1 -0.7 68
2019-08-08 05:00:00 21.7 4 Sur 6 Sudoeste 0 1009.7 -1.7 73
2019-08-08 04:00:00 22 4 Oeste 10 Oeste 0 1010 -1.6 66
2019-08-08 03:00:00 22.3 6 Oeste 10 Oeste 0 1010.8 -1 68
2019-08-08 02:00:00 22.5 4 Sudoeste 10 Oeste 0 1011.4 0 68
2019-08-08 01:00:00 22.9 5 Oeste 8 Oeste 0 1011.6 0.7 65
2019-08-08 00:00:00 22.8 5 Sur 9 Este 0 1011.8 1.5 71
2019-08-07 23:00:00 23.4 4 Sudeste 15 Sudoeste 0 1011.4 1.3 66
2019-08-07 22:00:00 23.9 5 Sur 15 Sudoeste 0 1010.9 0.8 63
2019-08-07 21:00:00 24.8 8 Sudoeste 30 Este 0 1010.3 0.1 59
2019-08-07 20:00:00 26.1 13 Sudeste 28 Este 0 1010.1 -0.4 53
2019-08-07 19:00:00 26 15 Este 32 Nordeste 0 1010.1 -0.8 61
2019-08-07 18:00:00 26.6 14 Este 36 Este 0 1010.2 -0.6 61
2019-08-07 17:00:00 26.5 17 Este 37 Este 0 1010.5 -0.7 60
2019-08-07 16:00:00 26.8 20 Este 37 Este 0 1010.9 -0.3 62
2019-08-07 15:00:00 26.9 17 Este 36 Este 0 1010.8 -0.1 63
2019-08-07 14:00:00 26.6 17 Este 36 Este 0 1011.2 0.1 60
2019-08-07 13:00:00 28 23 Este 36 Este 0 1011.2 0.3 51
2019-08-07 12:00:00 28.3 14 Nordeste 23 Nordeste 0 1010.9 -0.1 45
2019-08-07 11:00:00 27.5 6 Sudeste 23 Este 0 1011.1 0.8 51
2019-08-07 10:00:00 26.2 7 Sudeste 12 Sudeste 0 1010.9 0.9 56
2019-08-07 09:00:00 24.6 6 Sur 10 Sur 0 1011 1.1 62
2019-08-07 08:00:00 21.3 0 Calma 7 Oeste 0 1010.3 0.2 70
2019-08-07 07:00:00 21.5 4 Sudoeste 9 Sur 0 1010 -0.3 71
2019-08-07 06:00:00 21.7 4 Sudoeste 7 Sudoeste 0 1009.9 -0.6 69
2019-08-07 05:00:00 22.3 5 Oeste 12 Este 0 1010.1 -1 66
2019-08-07 04:00:00 22.4 3 Este 9 Norte 0 1010.3 -1.4 67
2019-08-07 03:00:00 23.1 6 Nordeste 20 Nordeste 0 1010.5 -1.4 68
2019-08-07 02:00:00 23.4 9 Nordeste 26 Norte 0 1011.1 -0.6 65
2019-08-07 01:00:00 23.6 9 Nordeste 22 Norte 0 1011.7 0.5 66
2019-08-07 00:00:00 23.6 9 Nordeste 19 Nordeste 0 1011.9 1.1 64
2019-08-06 23:00:00 23.9 9 Norte 17 Sudeste 0 1011.7 1.6 64
2019-08-06 22:00:00 24.1 9 Nordeste 32 Norte 0 1011.2 1.5 62
2019-08-06 21:00:00 24.5 6 Nordeste 23 Noroeste 0 1010.8 1.3 59
2019-08-06 20:00:00 25.9 13 Norte 28 Norte 0 1010.1 0.3 51
2019-08-06 19:00:00 28.4 16 Norte 30 Noroeste 0 1009.7 -0.6 42
2019-08-06 18:00:00 29.3 14 Norte 38 Norte 0 1009.5 -1.1 42
2019-08-06 17:00:00 28.3 23 Noroeste 49 Norte 0 1009.8 -1.3 48
2019-08-06 16:00:00 28.4 25 Noroeste 49 Noroeste 0 1010.3 -1.3 48
2019-08-06 15:00:00 28.7 24 Noroeste 45 Norte 0 1010.6 -1.4 48
2019-08-06 14:00:00 28.7 21 Noroeste 39 Noroeste 0 1011.1 -1 47
2019-08-06 13:00:00 28.9 13 Norte 26 Noroeste 0 1011.6 -0.5 46
2019-08-06 12:00:00 27.7 7 Norte 28 Norte 0 1012 -0.3 51
2019-08-06 11:00:00 26.7 14 Norte 28 Norte 0 1012.1 0 54
2019-08-06 10:00:00 25.5 8 Este 20 Norte 0 1012.1 0.2 60
2019-08-06 09:00:00 24.4 8 Noroeste 16 Norte 0 1012.3 0.2 61
2019-08-06 08:00:00 22.9 10 Noroeste 17 Norte 0 1012.1 -0.1 66
2019-08-06 07:00:00 22.9 8 Norte 26 Norte 0 1011.9 -0.5 66
2019-08-06 06:00:00 23.1 7 Nordeste 18 Nordeste 0 1012.1 -0.3 67
2019-08-06 05:00:00 23.1 5 Nordeste 21 Noroeste 0 1012.2 -0.5 68
2019-08-06 04:00:00 23.1 11 Norte 30 Noroeste 0 1012.4 -0.6 68
2019-08-06 03:00:00 23 12 Noroeste 30 Norte 0 1012.4 -0.8 66
2019-08-06 02:00:00 23.4 14 Norte 32 Norte 0 1012.7 -0.2 63
2019-08-06 01:00:00 23.5 14 Noroeste 30 Noroeste 0 1013 0.7 63
2019-08-06 00:00:00 23.7 13 Noroeste 28 Norte 0 1013.2 1.2 62
2019-08-05 23:00:00 23.9 5 Noroeste 27 Noroeste 0 1012.9 1.2 63
2019-08-05 22:00:00 24.3 15 Noroeste 28 Noroeste 0 1012.3 0.9 60
2019-08-05 21:00:00 24.7 12 Norte 27 Norte 0 1012 0.7 59
2019-08-05 20:00:00 25.5 14 Noroeste 28 Norte 0 1011.7 0 56
2019-08-05 19:00:00 28.4 17 Norte 30 Norte 0 1011.4 -0.8 47
2019-08-05 18:00:00 28.7 12 Nordeste 28 Nordeste 0 1011.3 -1.2 46
2019-08-05 17:00:00 27.6 14 Nordeste 35 Nordeste 0 1011.7 -0.8 51
2019-08-05 16:00:00 27.5 14 Nordeste 34 Nordeste 0 1012.2 -0.6 53
2019-08-05 15:00:00 28 22 Nordeste 41 Nordeste 0 1012.5 -0.3 51
2019-08-05 14:00:00 28 21 Nordeste 40 Este 0 1012.5 -0.4 48
2019-08-05 13:00:00 28.6 15 Nordeste 32 Nordeste 0 1012.8 0.1 44
2019-08-05 12:00:00 27.8 16 Nordeste 32 Nordeste 0 1012.8 0 46
2019-08-05 11:00:00 27.1 8 Norte 31 Noroeste 0 1012.9 0.4 49
2019-08-05 10:00:00 25.9 14 Noroeste 34 Norte 0 1012.7 0.4 54
2019-08-05 09:00:00 24.7 11 Norte 26 Norte 0 1012.8 0.6 58
2019-08-05 08:00:00 23.6 16 Norte 27 Norte 0 1012.5 0.3 67
2019-08-05 07:00:00 23.4 10 Norte 28 Norte 0 1012.3 -0.5 65
2019-08-05 06:00:00 23.2 9 Norte 24 Norte 0 1012.2 -0.8 64
2019-08-05 05:00:00 23.1 4 Noroeste 18 Norte 0 1012.2 -1.3 64
2019-08-05 04:00:00 23.5 6 Nordeste 17 Nordeste 0 1012.8 -1.3 65
2019-08-05 03:00:00 23.5 6 Nordeste 23 Norte 0 1013 -1 65
2019-08-05 02:00:00 23.4 8 Nordeste 23 Norte 0 1013.5 -0.3 65
2019-08-05 01:00:00 23.5 9 Norte 25 Nordeste 0 1014.1 0.7 65
2019-08-05 00:00:00 23.6 12 Norte 26 Norte 0 1014 1 63
2019-08-04 23:00:00 23.5 8 Norte 23 Nordeste 0 1013.8 1.2 63
2019-08-04 22:00:00 23.8 8 Nordeste 21 Nordeste 0 1013.4 1 62
2019-08-04 21:00:00 24.1 9 Nordeste 26 Nordeste 0 1013 0.6 60
2019-08-04 20:00:00 25 13 Nordeste 26 Nordeste 0 1012.6 0.6 59
2019-08-04 19:00:00 26.5 15 Nordeste 33 Noroeste 0 1012.4 0.3 54
2019-08-04 18:00:00 26.8 17 Norte 38 Norte 0 1012.4 -0.2 53
2019-08-04 17:00:00 27.5 23 Noroeste 47 Noroeste 0 1012 -0.9 53
2019-08-04 16:00:00 28.1 23 Noroeste 42 Noroeste 0 1012.1 -1.2 51
2019-08-04 15:00:00 28.7 15 Norte 35 Nordeste 0 1012.6 -1.1 48
2019-08-04 14:00:00 27.5 16 Nordeste 38 Nordeste 0 1012.9 -0.7 51
2019-08-04 13:00:00 27.1 15 Nordeste 36 Nordeste 0 1013.3 -0.1 50
2019-08-04 12:00:00 27 14 Noroeste 30 Norte 0 1013.7 0.4 49
2019-08-04 11:00:00 25.8 14 Noroeste 30 Norte 0 1013.6 0.6 53
2019-08-04 10:00:00 25.3 10 Nordeste 21 Este 0 1013.4 0.6 56
2019-08-04 09:00:00 24.1 3 Nordeste 8 Este 0 1013.3 0.9 56
2019-08-04 08:00:00 21.2 2 Oeste 7 Este 0 1013 0.6 68
2019-08-04 07:00:00 20.9 0 Calma 7 Sudeste 0 1012.8 0.3 66
2019-08-04 06:00:00 21.5 4 Sudeste 27 Noroeste 0 1012.4 -0.4 64
2019-08-04 05:00:00 22 15 Norte 30 Noroeste 0 1012.4 -0.8 61
2019-08-04 04:00:00 22 9 Norte 23 Noroeste 0 1012.5 -1.1 60
2019-08-04 03:00:00 21.6 4 Este 10 Nordeste 0 1012.8 -1 64
2019-08-04 02:00:00 21.9 5 Nordeste 10 Norte 0 1013.2 -0.3 63
2019-08-04 01:00:00 22.3 5 Nordeste 17 Noroeste 0 1013.6 0.7 60
2019-08-04 00:00:00 22.6 7 Noroeste 20 Noroeste 0 1013.8 1.4 58
2019-08-03 23:00:00 22.8 8 Noroeste 19 Noroeste 0 1013.5 1.5 57
2019-08-03 22:00:00 23.1 10 Noroeste 24 Norte 0 1012.9 1.2 55
2019-08-03 21:00:00 23.5 14 Norte 32 Noroeste 0 1012.4 0.6 53
2019-08-03 20:00:00 24.6 17 Noroeste 40 Noroeste 0 1012 0 49
2019-08-03 19:00:00 26.7 18 Noroeste 44 Norte 0 1011.7 -0.9 41
2019-08-03 18:00:00 27.5 20 Noroeste 38 Norte 0 1011.8 -1.2 45
2019-08-03 17:00:00 27.4 21 Noroeste 42 Noroeste 0 1012 -1.1 47
2019-08-03 16:00:00 27.5 19 Noroeste 44 Noroeste 0 1012.6 -0.8 47
2019-08-03 15:00:00 27.6 17 Noroeste 45 Oeste 0 1013 -0.5 49
2019-08-03 14:00:00 28.1 24 Oeste 39 Oeste 0 1013.1 -0.5 46
2019-08-03 13:00:00 28 12 Oeste 27 Noroeste 0 1013.4 0.1 48
2019-08-03 12:00:00 27.2 13 Noroeste 28 Noroeste 0 1013.5 0.4 50
2019-08-03 11:00:00 26.4 10 Norte 21 Norte 0 1013.6 0.8 50
2019-08-03 10:00:00 25.3 12 Norte 24 Norte 0 1013.3 0.7 55
2019-08-03 09:00:00 23.8 8 Noroeste 24 Norte 0 1013.1 0.4 59
2019-08-03 08:00:00 21.9 6 Nordeste 24 Noroeste 0 1012.8 0.1 67
2019-08-03 07:00:00 21.8 11 Norte 23 Norte 0 1012.6 -0.2 67
2019-08-03 06:00:00 21.5 3 Norte 10 Norte 0 1012.7 -0.4 69
2019-08-03 05:00:00 21.8 5 Norte 11 Norte 0 1012.7 -0.7 66
2019-08-03 04:00:00 21.9 4 Este 8 Nordeste 0 1012.8 -0.7 67
2019-08-03 03:00:00 22.3 7 Norte 14 Norte 0 1013.1 -0.4 65
2019-08-03 02:00:00 22.2 4 Norte 12 Nordeste 0 1013.4 0.2 66
2019-08-03 01:00:00 22.4 3 Este 12 Norte 0 1013.5 0.6 65
2019-08-03 00:00:00 22.7 4 Nordeste 9 Norte 0 1013.5 0.9 63
2019-08-02 23:00:00 22.9 4 Sur 15 Norte 0 1013.2 0.6 62
2019-08-02 22:00:00 23.3 6 Norte 24 Norte 0 1012.9 0.8 59
2019-08-02 21:00:00 23.9 11 Norte 27 Norte 0 1012.6 0.7 58
2019-08-02 20:00:00 25.1 13 Norte 29 Noroeste 0 1012.6 0.2 52
2019-08-02 19:00:00 28 11 Norte 21 Norte 0 1012.1 -0.6 43
2019-08-02 18:00:00 28.9 8 Sudeste 23 Este 0 1011.9 -1.1 43
2019-08-02 17:00:00 29.3 9 Nordeste 27 Nordeste 0 1012.4 -1 39
2019-08-02 16:00:00 28.1 15 Este 28 Nordeste 0 1012.7 -1 44
2019-08-02 15:00:00 28.4 14 Nordeste 25 Nordeste 0 1013 -1 43
2019-08-02 14:00:00 27.7 13 Este 30 Nordeste 0 1013.4 -0.5 46
2019-08-02 13:00:00 26.9 15 Este 32 Nordeste 0 1013.7 -0.1 48
2019-08-02 12:00:00 26.1 15 Este 27 Este 0 1014 0.3 54
2019-08-02 11:00:00 25.6 13 Nordeste 28 Nordeste 0 1013.9 0.7 56
2019-08-02 10:00:00 24.7 8 Este 21 Nordeste 0 1013.8 1.1 57
2019-08-02 09:00:00 21.8 5 Norte 11 Nordeste 0 1013.7 1 67
2019-08-02 08:00:00 20.7 0 Calma 6 Sudoeste 0 1013.2 0.5 70
2019-08-02 07:00:00 20.4 2 Sudoeste 5 Oeste 0 1012.7 -0.2 71
2019-08-02 06:00:00 20.6 2 Noroeste 8 Sudeste 0 1012.7 0 70
2019-08-02 05:00:00 20.5 3 Oeste 7 Sudoeste 0 1012.7 -0.4 67
2019-08-02 04:00:00 21.1 5 Sur 9 Sur 0 1012.9 -0.3 66
2019-08-02 03:00:00 21.1 4 Sudoeste 7 Sudeste 0 1012.7 -0.7 63
2019-08-02 02:00:00 21.2 3 Este 9 Este 0 1013.1 -0.2 65
2019-08-02 01:00:00 22.1 4 Este 17 Norte 0 1013.2 0.4 63
2019-08-02 00:00:00 21.9 0 Calma 18 Norte 0 1013.4 0.9 64
2019-08-01 23:00:00 22.4 7 Norte 17 Norte 0 1013.3 1.2 61
2019-08-01 22:00:00 22.9 5 Noroeste 30 Noroeste 0 1012.8 0.9 62
2019-08-01 21:00:00 23.3 13 Noroeste 36 Noroeste 0 1012.5 0.8 60
2019-08-01 20:00:00 24 19 Noroeste 42 Norte 0 1012.1 0 59
2019-08-01 19:00:00 26 20 Norte 36 Norte 0 1011.9 -0.4 51
2019-08-01 18:00:00 27 15 Norte 40 Noroeste 0 1011.7 -1 47
2019-08-01 17:00:00 27.1 10 Norte 28 Noroeste 0 1012.1 -0.8 50
2019-08-01 16:00:00 25.8 12 Nordeste 31 Nordeste 0 1012.3 -0.7 56
2019-08-01 15:00:00 26.6 12 Norte 35 Norte 0 1012.7 -0.2 52
2019-08-01 14:00:00 27.3 18 Norte 34 Norte 0 1012.9 0.3 49
2019-08-01 13:00:00 26.5 12 Nordeste 26 Nordeste 0 1013 0.8 49
2019-08-01 12:00:00 26.6 10 Norte 24 Nordeste 0 1012.9 0.8 48
2019-08-01 11:00:00 25.8 8 Nordeste 28 Norte 0 1012.6 0.9 52
2019-08-01 10:00:00 24.9 10 Noroeste 22 Norte 0 1012.2 0.8 56
2019-08-01 09:00:00 23.6 2 Sur 5 Sur 0 1012.1 0.8 55
2019-08-01 08:00:00 20.6 0 Calma 9 Oeste 0 1011.7 0.5 66
2019-08-01 07:00:00 20.8 5 Norte 13 Noroeste 0 1011.4 -0.2 64
2019-08-01 06:00:00 21.1 8 Norte 18 Norte 0 1011.3 -0.4 63
2019-08-01 05:00:00 21.4 13 Norte 27 Noroeste 0 1011.2 -0.8 61
2019-08-01 04:00:00 21.4 9 Norte 27 Norte 0 1011.6 -1 61
2019-08-01 03:00:00 21.6 16 Norte 28 Norte 0 1011.7 -0.9 62
2019-08-01 02:00:00 21.7 10 Norte 39 Norte 0 1012 -0.1 60
2019-08-01 01:00:00 21.8 17 Noroeste 43 Norte 0 1012.6 0.9 62
2019-08-01 00:00:00 22 13 Noroeste 38 Norte 0 1012.6 1.3 59
2019-07-31 23:00:00 22.1 12 Noroeste 34 Noroeste 0 1012.1 1.4 64
2019-07-31 22:00:00 22.1 12 Noroeste 34 Noroeste 0 1011.7 1.2 62
2019-07-31 21:00:00 22.6 16 Norte 46 Noroeste 0 1011.3 0.6 59
2019-07-31 20:00:00 23.3 17 Noroeste 48 Noroeste 0 1010.7 -0.2 56
2019-07-31 19:00:00 24.8 19 Norte 42 Noroeste 0 1010.5 -0.8 51
2019-07-31 18:00:00 26 13 Norte 45 Noroeste 0 1010.7 -1.2 48
2019-07-31 17:00:00 25.8 19 Norte 45 Norte 0 1010.9 -1.5 48
2019-07-31 16:00:00 25.6 23 Norte 43 Norte 0 1011.3 -1.4 49
2019-07-31 15:00:00 25.3 18 Norte 37 Nordeste 0 1011.9 -0.6 54
2019-07-31 14:00:00 24.4 16 Norte 39 Noroeste 0 1012.4 0 55
2019-07-31 13:00:00 24.4 15 Norte 35 Norte 0 1012.7 0.6 58
2019-07-31 12:00:00 25.6 13 Norte 33 Noroeste 0 1012.5 0.6 51
2019-07-31 11:00:00 24.7 16 Norte 28 Norte 0 1012.4 0.8 54
2019-07-31 10:00:00 23.9 8 Norte 25 Noroeste 0 1012.1 0.9 52
2019-07-31 09:00:00 23.6 5 Nordeste 22 Noroeste 0 1011.9 0.9 53
2019-07-31 08:00:00 21.6 8 Norte 25 Norte 0 1011.6 0.7 64
2019-07-31 07:00:00 21.5 14 Norte 29 Norte 0 1011.2 -0.1 60
2019-07-31 06:00:00 21.4 10 Noroeste 32 Norte 0 1011 -0.8 58
2019-07-31 05:00:00 21.5 14 Noroeste 30 Noroeste 0 1010.9 -1.5 61
2019-07-31 04:00:00 21.5 13 Noroeste 37 Noroeste 0 1011.3 -1.9 60
2019-07-31 03:00:00 21.8 7 Noroeste 34 Noroeste 0 1011.8 -1.5 62
2019-07-31 02:00:00 21.8 9 Norte 26 Noroeste 0 1012.4 -1 67
2019-07-31 01:00:00 21.7 11 Norte 41 Norte 0 1013.2 0.4 60
2019-07-31 00:00:00 22.4 15 Norte 35 Nordeste 0 1013.3 0.8 63
2019-07-30 23:00:00 22.4 16 Norte 33 Noroeste 0 1013.4 1.2 60
2019-07-30 22:00:00 22.7 15 Norte 36 Nordeste 0 1012.8 1.2 62
2019-07-30 21:00:00 23 14 Norte 32 Norte 0 1012.5 0.7 64
2019-07-30 20:00:00 23.4 17 Norte 43 Norte 0 1012.2 0.3 58
2019-07-30 19:00:00 24.4 24 Norte 49 Norte 0 1011.6 -0.7 54
2019-07-30 18:00:00 25.3 20 Norte 50 Norte 0 1011.8 -1.3 52
2019-07-30 17:00:00 25.5 26 Norte 50 Norte 0 1011.9 -1.4 53
2019-07-30 16:00:00 26 17 Norte 38 Norte 0 1012.3 -1.2 53
2019-07-30 15:00:00 25.3 14 Norte 39 Norte 0 1013.1 -0.8 58
2019-07-30 14:00:00 26.3 14 Norte 39 Nordeste 0 1013.3 -0.9 53
2019-07-30 13:00:00 25.5 19 Nordeste 45 Nordeste 0 1013.5 -0.3 54
2019-07-30 12:00:00 24.4 17 Norte 35 Noroeste 0 1013.9 0.6 63
2019-07-30 11:00:00 24 14 Nordeste 35 Norte 0 1014.2 1.5 65
2019-07-30 10:00:00 22.6 14 Nordeste 27 Nordeste 0 1013.8 1.6 74
2019-07-30 09:00:00 21.7 13 Nordeste 30 Nordeste 0 1013.3 1.3 79
2019-07-30 08:00:00 22.5 9 Nordeste 38 Noroeste 0 1012.7 0.9 73
2019-07-30 07:00:00 23.3 16 Nordeste 34 Norte 0 1012.2 0 67
2019-07-30 06:00:00 23 11 Norte 33 Norte 0 1012 -0.6 71
2019-07-30 05:00:00 23.8 12 Norte 32 Norte 0 1011.8 -1.4 68
2019-07-30 04:00:00 23.9 9 Norte 36 Norte 0 1012.2 -1.5 63
2019-07-30 03:00:00 23.8 11 Norte 36 Norte 0 1012.6 -1.4 65
2019-07-30 02:00:00 23.7 12 Norte 30 Norte 0 1013.2 -0.5 66
2019-07-30 01:00:00 23.8 10 Nordeste 31 Norte 0 1013.7 0.7 66
2019-07-30 00:00:00 23.9 11 Norte 28 Norte 0 1014 1.4 65
2019-07-29 23:00:00 23.8 21 Norte 42 Norte 0 1013.7 1.9 64
2019-07-29 22:00:00 24 14 Norte 30 Norte 0 1013 1.3 64
2019-07-29 21:00:00 24 11 Norte 35 Norte 0 1012.6 1.1 62
2019-07-29 20:00:00 24.7 12 Norte 36 Norte 0 1011.8 0.3 57
2019-07-29 19:00:00 26.3 17 Norte 37 Norte 0 1011.7 0.3 51
2019-07-29 18:00:00 27.5 13 Nordeste 35 Nordeste 0 1011.5 -0.2 46
2019-07-29 17:00:00 27.7 14 Norte 36 Norte 0 1011.5 -0.3 43
2019-07-29 16:00:00 28.8 8 Norte 33 Noroeste 0 1011.4 -0.8 41
2019-07-29 15:00:00 28 18 Noroeste 42 Noroeste 0 1011.7 -0.6 44
2019-07-29 14:00:00 28.3 10 Norte 40 Norte 0 1011.8 -0.4 42
2019-07-29 13:00:00 27.9 14 Norte 32 Norte 0 1012.2 0.6 46
2019-07-29 12:00:00 26.9 17 Norte 33 Norte 0 1012.3 0.7 49
2019-07-29 11:00:00 25.8 13 Norte 38 Norte 0 1012.2 0.9 50
2019-07-29 10:00:00 25.3 15 Norte 32 Norte 0 1011.6 0.5 53
2019-07-29 09:00:00 23.6 14 Noroeste 31 Noroeste 0 1011.6 0.9 56
2019-07-29 08:00:00 22.1 11 Noroeste 27 Noroeste 0 1011.3 1 61
2019-07-29 07:00:00 21.9 10 Norte 27 Noroeste 0 1011.1 0.5 64
2019-07-29 06:00:00 22.1 13 Norte 33 Norte 0 1010.7 0 63
2019-07-29 05:00:00 22.3 17 Norte 31 Norte 0 1010.3 -0.7 66
2019-07-29 04:00:00 22.3 17 Norte 28 Norte 0 1010.6 -0.6 66
2019-07-29 03:00:00 22.6 14 Norte 35 Noroeste 0 1010.7 -0.7 67
2019-07-29 02:00:00 22.5 12 Noroeste 29 Noroeste 0 1011 -0.4 66
2019-07-29 01:00:00 22.8 16 Norte 32 Norte 0 1011.2 0.5 65
2019-07-29 00:00:00 23.1 15 Noroeste 35 Noroeste 0 1011.4 1 66
2019-07-28 23:00:00 23.2 14 Noroeste 39 Oeste 0 1011.4 1.9 64
2019-07-28 22:00:00 23.5 14 Noroeste 36 Noroeste 0 1010.7 2 63
2019-07-28 21:00:00 23.6 15 Noroeste 46 Noroeste 0 1010.4 2.1 62
2019-07-28 20:00:00 24.3 23 Noroeste 42 Oeste 0 1009.5 1.1 60
2019-07-28 19:00:00 25.6 23 Noroeste 52 Noroeste 0 1008.7 0.1 60
2019-07-28 18:00:00 27.8 15 Noroeste 46 Noroeste 0 1008.3 -0.8 53
2019-07-28 17:00:00 27.5 21 Oeste 45 Noroeste 0 1008.4 -0.9 56
2019-07-28 16:00:00 28.7 14 Noroeste 41 Noroeste 0 1008.6 -0.9 56
2019-07-28 15:00:00 28.7 16 Norte 42 Noroeste 0 1009.1 -1 52
2019-07-28 14:00:00 28.5 19 Noroeste 37 Noroeste 0 1009.3 -1 55
2019-07-28 13:00:00 28.9 12 Noroeste 33 Noroeste 0 1009.5 -0.8 54
2019-07-28 12:00:00 28.3 6 Noroeste 23 Nordeste 0 1010.1 0 57
2019-07-28 11:00:00 25.9 13 Este 26 Este 0 1010.3 0.3 66
2019-07-28 10:00:00 26 8 Este 17 Este 0 1010.3 0.4 65
2019-07-28 09:00:00 24.9 5 Este 22 Noroeste 0 1010.1 0.6 65
2019-07-28 08:00:00 22.8 6 Norte 19 Noroeste 0 1010 0.2 71
2019-07-28 07:00:00 22.1 2 Sur 7 Nordeste 0 1009.9 -0.5 70
2019-07-28 06:00:00 22.2 3 Este 12 Nordeste 0 1009.5 -1.6 71
2019-07-28 05:00:00 22.6 7 Nordeste 22 Nordeste 0 1009.8 -1.9 71
2019-07-28 04:00:00 22.6 9 Nordeste 21 Nordeste 0 1010.4 -1.8 70
2019-07-28 03:00:00 22.7 9 Nordeste 23 Nordeste 0 1011.1 -1.4 74
2019-07-28 02:00:00 22.6 9 Nordeste 26 Nordeste 0 1011.7 -0.8 73
2019-07-28 01:00:00 22.7 11 Nordeste 20 Nordeste 0 1012.2 0.1 70
2019-07-28 00:00:00 22.7 8 Nordeste 14 Nordeste 0 1012.5 1.1 59
2019-07-27 23:00:00 22.9 6 Este 22 Nordeste 0 1012.5 1.4 60
2019-07-27 22:00:00 23.4 7 Nordeste 17 Este 0 1012.1 1 55
2019-07-26 11:00:00 28.3 12 Este 19 Este 0 1012.1 0.5 50
2019-07-26 10:00:00 27.1 11 Este 17 Este 0 1012.2 0.7 53
2019-07-26 09:00:00 24.8 7 Sudeste 14 Sur 0 1012 0.9 59
2019-07-26 08:00:00 22.6 3 Sur 8 Sur 0 1011.6 0.4 62
2019-07-26 07:00:00 22.8 6 Sudoeste 12 Sudoeste 0 1011.5 -0.1 65
2019-07-26 06:00:00 23.2 6 Sur 11 Sur 0 1011.1 -0.7 61
2019-07-26 05:00:00 23.7 4 Noroeste 19 Norte 0 1011.2 -1 58
2019-07-26 04:00:00 24 9 Nordeste 24 Nordeste 0 1011.6 -0.7 58
2019-07-26 03:00:00 24 11 Nordeste 23 Norte 0 1011.8 -0.5 65
2019-07-26 02:00:00 24 2 Sudoeste 15 Nordeste 0 1012.2 0.3 63
2019-07-26 01:00:00 23.9 4 Sudoeste 15 Sudoeste 0 1012.3 1.1 61
2019-07-26 00:00:00 23.9 4 Sur 15 Sudoeste 0 1012.3 1.7 60